createdAt,value
2019-05-06T00:01:58.890Z,6.12
2019-05-06T00:06:03.943Z,6.11
2019-05-06T00:10:24.477Z,6.12
2019-05-06T00:14:28.413Z,6.10
2019-05-06T00:18:34.232Z,6.09
2019-05-06T00:22:38.690Z,6.09
2019-05-06T00:27:04.936Z,6.04
2019-05-06T00:31:15.943Z,6.01
2019-05-06T00:35:17.650Z,6.00
2019-05-06T00:39:33.953Z,5.96
2019-05-06T00:43:38.180Z,5.95
2019-05-06T00:47:44.378Z,5.93
2019-05-06T00:51:48.782Z,5.91
2019-05-06T00:55:53.842Z,5.87
2019-05-06T00:59:58.184Z,5.87
2019-05-06T01:04:04.588Z,5.84
2019-05-06T01:08:09.063Z,5.85
2019-05-06T01:12:14.350Z,5.86
2019-05-06T01:16:20.703Z,5.86
2019-05-06T01:20:24.934Z,5.86
2019-05-06T01:24:29.164Z,5.85
2019-05-06T01:28:34.127Z,5.85
2019-05-06T01:32:38.520Z,5.83
2019-05-06T01:36:43.719Z,5.81
2019-05-06T01:41:07.090Z,5.79
2019-05-06T01:45:14.097Z,5.79
2019-05-06T01:49:18.109Z,5.82
2019-05-06T01:53:24.143Z,5.82
2019-05-06T01:57:28.427Z,5.85
2019-05-06T02:01:34.177Z,5.85
2019-05-06T02:05:38.642Z,5.84
2019-05-06T02:09:44.780Z,5.82
2019-05-06T02:13:49.172Z,5.81
2019-05-06T02:17:55.130Z,5.81
2019-05-06T02:22:21.273Z,5.79
2019-05-06T02:26:25.622Z,5.77
2019-05-06T02:30:48.788Z,5.81
2019-05-06T02:35:06.113Z,5.80
2019-05-06T02:39:10.377Z,5.82
2019-05-06T02:43:14.984Z,5.84
2019-05-06T02:47:28.161Z,5.84
2019-05-06T02:51:33.429Z,5.85
2019-05-06T02:55:38.156Z,5.84
2019-05-06T02:59:44.104Z,5.86
2019-05-06T03:03:48.318Z,5.86
2019-05-06T03:07:56.990Z,5.84
2019-05-06T03:11:58.809Z,5.88
2019-05-06T03:16:05.648Z,5.87
2019-05-06T03:20:13.227Z,5.90
2019-05-06T03:24:36.355Z,5.88
2019-05-06T03:28:43.751Z,5.90
2019-05-06T03:33:21.315Z,5.89
2019-05-06T03:36:56.072Z,5.88
2019-05-06T03:40:59.098Z,5.92
2019-05-06T03:45:09.478Z,5.91
2019-05-06T03:49:14.000Z,5.92
2019-05-06T03:53:18.664Z,5.95
2019-05-06T03:57:24.320Z,5.95
2019-05-06T04:01:29.071Z,5.99
2019-05-06T04:05:33.763Z,6.01
2019-05-06T04:09:38.018Z,6.03
2019-05-06T04:13:43.680Z,6.05
2019-05-06T04:17:57.537Z,6.10
2019-05-06T04:22:23.394Z,6.11
2019-05-06T04:26:46.152Z,6.15
2019-05-06T04:30:49.264Z,6.19
2019-05-06T04:34:53.812Z,6.24
2019-05-06T04:38:58.033Z,6.24
2019-05-06T04:43:03.512Z,6.25
2019-05-06T04:47:08.397Z,6.29
2019-05-06T04:51:13.655Z,6.28
2019-05-06T04:55:18.228Z,6.31
2019-05-06T04:59:23.292Z,6.33
2019-05-06T05:03:27.877Z,6.36
2019-05-06T05:07:33.410Z,6.40
2019-05-06T05:12:03.077Z,6.41
2019-05-06T05:16:36.010Z,6.42
2019-05-06T05:20:46.058Z,6.45
2019-05-06T05:24:46.384Z,6.46
2019-05-06T05:28:53.185Z,6.50
2019-05-06T05:32:57.269Z,6.53
2019-05-06T05:37:03.025Z,6.58
2019-05-06T05:41:07.303Z,6.60
2019-05-06T05:45:12.838Z,6.63
2019-05-06T05:49:28.774Z,6.66
2019-05-06T05:53:33.272Z,6.68
2019-05-06T05:57:37.671Z,6.72
2019-05-06T06:01:43.442Z,6.75
2019-05-06T06:05:47.840Z,6.78
2019-05-06T06:10:02.657Z,6.80
2019-05-06T06:14:26.213Z,6.86
2019-05-06T06:18:59.428Z,6.89
2019-05-06T06:23:10.228Z,6.92
2019-05-06T06:27:14.493Z,6.95
2019-05-06T06:31:35.682Z,6.97
2019-05-06T06:36:12.336Z,7.00
2019-05-06T06:40:35.898Z,7.06
2019-05-06T06:44:42.292Z,7.09
2019-05-06T06:48:46.043Z,7.13
2019-05-06T06:52:52.520Z,7.20
2019-05-06T06:57:09.191Z,7.26
2019-05-06T07:01:26.603Z,7.32
2019-05-06T07:05:39.219Z,7.40
2019-05-06T07:09:43.433Z,7.45
2019-05-06T07:13:54.712Z,7.49
2019-05-06T07:17:58.960Z,7.54
2019-05-06T07:22:06.648Z,7.63
2019-05-06T07:26:12.163Z,7.68
2019-05-06T07:30:17.244Z,7.76
2019-05-06T07:34:22.890Z,7.86
2019-05-06T07:38:27.283Z,7.95
2019-05-06T07:42:38.122Z,8.05
2019-05-06T07:46:53.578Z,8.10
2019-05-06T07:50:57.831Z,8.18
2019-05-06T07:55:02.534Z,8.30
2019-05-06T07:59:09.861Z,8.35
2019-05-06T08:03:14.255Z,8.41
2019-05-06T08:07:18.476Z,8.48
2019-05-06T08:11:25.982Z,8.52
2019-05-06T08:15:28.990Z,8.58
2019-05-06T08:19:33.743Z,8.65
2019-05-06T08:23:43.544Z,8.71
2019-05-06T08:27:49.491Z,8.80
2019-05-06T08:31:53.725Z,8.93
2019-05-06T08:36:10.598Z,9.00
2019-05-06T08:40:05.735Z,9.09
2019-05-06T08:44:10.028Z,9.18
2019-05-06T08:48:14.294Z,9.22
2019-05-06T08:52:19.357Z,9.25
2019-05-06T08:56:23.886Z,9.31
2019-05-06T09:00:28.943Z,9.43
2019-05-06T09:04:33.205Z,9.53
2019-05-06T09:08:37.431Z,9.64
2019-05-06T09:12:42.550Z,9.71
2019-05-06T09:16:50.514Z,9.80
2019-05-06T09:20:54.552Z,9.89
2019-05-06T09:24:58.757Z,9.94
2019-05-06T09:29:09.370Z,10.00
2019-05-06T09:33:15.510Z,10.05
2019-05-06T09:37:20.138Z,10.07
2019-05-06T09:41:24.411Z,10.17
2019-05-06T09:45:28.645Z,10.21
2019-05-06T09:49:34.020Z,10.24
2019-05-06T09:54:00.175Z,10.33
2019-05-06T09:58:05.071Z,10.41
2019-05-06T10:02:09.356Z,10.46
2019-05-06T10:06:13.601Z,10.46
2019-05-06T10:10:18.055Z,10.50
2019-05-06T10:14:23.402Z,10.60
2019-05-06T10:18:27.819Z,10.68
2019-05-06T10:22:32.574Z,10.81
2019-05-06T10:26:43.299Z,10.91
2019-05-06T10:30:47.563Z,10.96
2019-05-06T10:34:52.636Z,10.98
2019-05-06T10:39:06.071Z,11.07
2019-05-06T10:43:27.014Z,11.07
2019-05-06T10:47:33.043Z,11.06
2019-05-06T10:52:02.466Z,11.07
2019-05-06T10:56:28.630Z,11.05
2019-05-06T11:00:33.289Z,11.10
2019-05-06T11:04:37.638Z,11.13
2019-05-06T11:08:42.179Z,11.10
2019-05-06T11:12:46.449Z,11.10
2019-05-06T11:16:51.083Z,11.21
2019-05-06T11:20:56.239Z,11.21
2019-05-06T11:25:02.942Z,11.27
2019-05-06T11:29:12.577Z,11.31
2019-05-06T11:33:38.848Z,11.40
2019-05-06T11:37:54.336Z,11.50
2019-05-06T11:42:22.534Z,11.58
2019-05-06T11:46:05.626Z,11.58
2019-05-06T11:50:13.007Z,11.58
2019-05-06T11:54:20.344Z,11.55
2019-05-06T11:58:42.808Z,11.50
2019-05-06T12:02:48.749Z,11.54
2019-05-06T12:07:09.205Z,11.59
2019-05-06T12:10:59.211Z,11.59
2019-05-06T12:15:05.411Z,11.62
2019-05-06T12:19:09.536Z,11.62
2019-05-06T12:23:15.550Z,11.68
2019-05-06T12:27:37.686Z,11.80
2019-05-06T12:31:42.316Z,11.92
2019-05-06T12:35:47.924Z,11.87
2019-05-06T12:39:57.523Z,11.79
2019-05-06T12:44:03.100Z,11.73
2019-05-06T12:48:24.379Z,11.64
2019-05-06T12:52:28.972Z,11.64
2019-05-06T12:56:35.134Z,11.67
2019-05-06T13:00:39.410Z,11.69
2019-05-06T13:04:54.581Z,11.63
2019-05-06T13:08:58.708Z,11.63
2019-05-06T13:13:05.424Z,11.65
2019-05-06T13:17:11.991Z,11.65
2019-05-06T13:21:16.326Z,11.69
2019-05-06T13:25:22.935Z,11.78
2019-05-06T13:29:32.278Z,11.87
2019-05-06T13:33:45.117Z,11.87
2019-05-06T13:37:49.770Z,11.85
2019-05-06T13:41:53.992Z,11.83
2019-05-06T13:46:00.066Z,11.80
2019-05-06T13:50:05.074Z,11.82
2019-05-06T13:54:12.730Z,11.85
2019-05-06T13:58:15.597Z,11.94
2019-05-06T14:02:37.568Z,11.95
2019-05-06T14:06:43.223Z,12.03
2019-05-06T14:10:56.661Z,12.02
2019-05-06T14:14:53.866Z,12.02
2019-05-06T14:18:58.114Z,12.00
2019-05-06T14:23:02.435Z,11.96
2019-05-06T14:27:11.881Z,11.97
2019-05-06T14:31:25.810Z,11.96
2019-05-06T14:35:29.670Z,12.04
2019-05-06T14:39:49.995Z,12.09
2019-05-06T14:43:43.177Z,12.09
2019-05-06T14:47:47.444Z,12.15
2019-05-06T14:51:53.708Z,12.09
2019-05-06T14:55:59.645Z,12.09
2019-05-06T15:00:04.622Z,12.09
2019-05-06T15:04:08.888Z,12.20
2019-05-06T15:08:13.574Z,12.20
2019-05-06T15:12:18.325Z,12.16
2019-05-06T15:16:22.701Z,12.14
2019-05-06T15:20:26.931Z,12.01
2019-05-06T15:24:31.668Z,12.01
2019-05-06T15:28:36.259Z,12.01
2019-05-06T15:32:40.596Z,12.03
2019-05-06T15:36:57.256Z,12.01
2019-05-06T15:41:02.934Z,12.00
2019-05-06T15:45:07.479Z,11.99
2019-05-06T15:49:11.894Z,12.03
2019-05-06T15:53:16.186Z,12.08
2019-05-06T15:57:22.691Z,12.12
2019-05-06T16:01:26.500Z,12.16
2019-05-06T16:05:34.493Z,12.13
2019-05-06T16:09:38.497Z,12.16
2019-05-06T16:13:45.121Z,12.16
2019-05-06T16:17:49.254Z,12.09
2019-05-06T16:21:53.791Z,12.09
2019-05-06T16:25:58.061Z,12.04
2019-05-06T16:30:03.436Z,12.04
2019-05-06T16:34:07.778Z,12.03
2019-05-06T16:38:13.207Z,12.06
2019-05-06T16:42:30.935Z,12.04
2019-05-06T16:46:35.142Z,12.03
2019-05-06T16:50:39.489Z,11.99
2019-05-06T16:54:43.756Z,11.94
2019-05-06T16:58:52.643Z,11.94
2019-05-06T17:03:23.983Z,11.92
2019-05-06T17:07:28.863Z,11.86
2019-05-06T17:11:34.596Z,11.85
2019-05-06T17:15:39.165Z,11.82
2019-05-06T17:19:43.416Z,11.80
2019-05-06T17:23:47.652Z,11.79
2019-05-06T17:27:52.683Z,11.76
2019-05-06T17:32:13.448Z,11.74
2019-05-06T17:36:19.458Z,11.71
2019-05-06T17:40:24.140Z,11.63
2019-05-06T17:44:29.524Z,11.63
2019-05-06T17:48:42.451Z,11.60
2019-05-06T17:52:46.871Z,11.56
2019-05-06T17:56:53.927Z,11.50
2019-05-06T18:00:58.585Z,11.43
2019-05-06T18:05:05.111Z,11.43
2019-05-06T18:09:12.621Z,11.35
2019-05-06T18:13:17.789Z,11.35
2019-05-06T18:17:22.147Z,11.34
2019-05-06T18:21:27.171Z,11.34
2019-05-06T18:25:32.832Z,11.36
2019-05-06T18:29:37.142Z,11.33
2019-05-06T18:33:43.101Z,11.29
2019-05-06T18:37:48.062Z,11.22
2019-05-06T18:41:53.243Z,11.22
2019-05-06T18:45:57.881Z,11.20
2019-05-06T18:50:03.318Z,11.14
2019-05-06T18:54:08.034Z,11.10
2019-05-06T18:58:12.918Z,11.06
2019-05-06T19:02:17.817Z,11.03
2019-05-06T19:06:23.249Z,11.00
2019-05-06T19:10:29.998Z,10.91
2019-05-06T19:14:34.547Z,10.88
2019-05-06T19:18:38.880Z,10.84
2019-05-06T19:22:43.592Z,10.79
2019-05-06T19:26:48.340Z,10.74
2019-05-06T19:30:54.064Z,10.70
2019-05-06T19:34:58.971Z,10.67
2019-05-06T19:39:05.991Z,10.63
2019-05-06T19:43:12.267Z,10.59
2019-05-06T19:47:16.397Z,10.55
2019-05-06T19:51:22.489Z,10.52
2019-05-06T19:55:27.493Z,10.50
2019-05-06T19:59:33.177Z,10.49
2019-05-06T20:03:37.897Z,10.45
2019-05-06T20:07:52.212Z,10.39
2019-05-06T20:11:59.877Z,10.37
2019-05-06T20:16:05.910Z,10.35
2019-05-06T20:20:12.425Z,10.33
2019-05-06T20:24:16.790Z,10.29
2019-05-06T20:28:22.722Z,10.26
2019-05-06T20:32:27.474Z,10.23
2019-05-06T20:36:33.219Z,10.22
2019-05-06T20:40:38.510Z,10.21
2019-05-06T20:44:43.587Z,10.21
2019-05-06T20:48:47.915Z,10.16
2019-05-06T20:52:52.230Z,10.14
2019-05-06T20:56:56.541Z,10.06
2019-05-06T21:01:02.992Z,10.00
2019-05-06T21:05:10.883Z,9.95
2019-05-06T21:09:15.059Z,9.92
2019-05-06T21:13:29.647Z,9.90
2019-05-06T21:17:25.719Z,9.84
2019-05-06T21:21:31.926Z,9.80
2019-05-06T21:25:36.298Z,9.75
2019-05-06T21:29:42.046Z,9.71
2019-05-06T21:33:46.770Z,9.65
2019-05-06T21:37:52.947Z,9.59
2019-05-06T21:41:57.266Z,9.54
2019-05-06T21:46:02.401Z,9.50
2019-05-06T21:50:07.010Z,9.46
2019-05-06T21:54:12.528Z,9.41
2019-05-06T21:58:17.102Z,9.42
2019-05-06T22:02:22.996Z,9.43
2019-05-06T22:06:27.393Z,9.36
2019-05-06T22:10:32.509Z,9.32
2019-05-06T22:14:37.007Z,9.29
2019-05-06T22:18:43.313Z,9.29
2019-05-06T22:22:47.430Z,9.28
2019-05-06T22:26:52.088Z,9.24
2019-05-06T22:30:56.562Z,9.23
2019-05-06T22:35:02.361Z,9.19
2019-05-06T22:39:07.666Z,9.15
2019-05-06T22:43:12.355Z,9.12
2019-05-06T22:47:16.729Z,9.05
2019-05-06T22:51:22.906Z,9.01
2019-05-06T22:55:27.475Z,8.97
2019-05-06T22:59:32.992Z,8.94
2019-05-06T23:03:37.932Z,8.91
2019-05-06T23:07:42.385Z,8.90
2019-05-06T23:11:47.059Z,8.89
2019-05-06T23:15:52.378Z,8.85
2019-05-06T23:19:56.735Z,8.81
2019-05-06T23:24:02.142Z,8.79
2019-05-06T23:28:06.475Z,8.77
2019-05-06T23:32:13.712Z,8.74
2019-05-06T23:36:16.693Z,8.70
2019-05-06T23:40:56.983Z,8.67
2019-05-06T23:45:37.009Z,8.69
2019-05-06T23:50:17.064Z,8.64
2019-05-06T23:54:57.185Z,8.60
2019-05-06T23:59:01.393Z,8.54
